createdAt,value
2019-02-08T00:01:08.521Z,100820.63
2019-02-08T00:03:38.070Z,100818.46
2019-02-08T00:06:07.625Z,100815.77
2019-02-08T00:08:37.098Z,100810.04
2019-02-08T00:11:06.653Z,100816.48
2019-02-08T00:13:36.256Z,100809.55
2019-02-08T00:16:05.910Z,100808.23
2019-02-08T00:18:35.542Z,100816.27
2019-02-08T00:21:05.823Z,100819.80
2019-02-08T00:23:35.451Z,100819.64
2019-02-08T00:26:05.155Z,100822.61
2019-02-08T00:28:34.701Z,100819.69
2019-02-08T00:31:04.499Z,100824.69
2019-02-08T00:33:33.986Z,100819.69
2019-02-08T00:36:04.022Z,100818.70
2019-02-08T00:38:33.514Z,100823.97
2019-02-08T00:41:03.246Z,100820.77
2019-02-08T00:43:32.942Z,100825.37
2019-02-08T00:46:02.692Z,100817.98
2019-02-08T00:48:32.210Z,100811.34
2019-02-08T00:51:02.130Z,100811.88
2019-02-08T00:53:33.512Z,100812.44
2019-02-08T00:56:03.049Z,100813.78
2019-02-08T00:58:32.606Z,100815.41
2019-02-08T01:01:02.151Z,100813.34
2019-02-08T01:03:31.695Z,100811.88
2019-02-08T01:06:01.558Z,100816.99
2019-02-08T01:08:31.202Z,100811.95
2019-02-08T01:11:01.088Z,100806.14
2019-02-08T01:13:30.561Z,100809.84
2019-02-08T01:16:00.149Z,100808.31
2019-02-08T01:18:29.700Z,100807.42
2019-02-08T01:20:59.220Z,100811.29
2019-02-08T01:23:28.923Z,100798.11
2019-02-08T01:25:58.536Z,100794.14
2019-02-08T01:28:28.084Z,100790.58
2019-02-08T01:30:57.659Z,100790.66
2019-02-08T01:33:27.220Z,100793.75
2019-02-08T01:35:56.842Z,100800.17
2019-02-08T01:38:26.338Z,100804.08
2019-02-08T01:40:55.966Z,100805.47
2019-02-08T01:43:25.460Z,100802.67
2019-02-08T01:45:55.078Z,100804.55
2019-02-08T01:48:24.593Z,100803.55
2019-02-08T01:50:54.143Z,100804.78
2019-02-08T01:53:23.626Z,100799.28
2019-02-08T01:55:53.125Z,100800.54
2019-02-08T01:58:22.942Z,100804.94
2019-02-08T02:00:52.586Z,100797.03
2019-02-08T02:03:22.306Z,100796.13
2019-02-08T02:05:51.800Z,100798.66
2019-02-08T02:08:21.348Z,100796.30
2019-02-08T02:10:50.961Z,100795.52
2019-02-08T02:13:20.591Z,100801.56
2019-02-08T02:15:51.198Z,100800.14
2019-02-08T02:18:20.693Z,100808.44
2019-02-08T02:20:50.206Z,100799.53
2019-02-08T02:23:19.977Z,100795.63
2019-02-08T02:25:49.593Z,100799.11
2019-02-08T02:28:19.080Z,100795.42
2019-02-08T02:30:48.709Z,100799.59
2019-02-08T02:33:18.171Z,100798.78
2019-02-08T02:35:47.728Z,100805.39
2019-02-08T02:38:17.274Z,100805.75
2019-02-08T02:40:46.904Z,100802.67
2019-02-08T02:43:16.518Z,100808.07
2019-02-08T02:45:46.073Z,100804.34
2019-02-08T02:48:15.742Z,100797.99
2019-02-08T02:50:45.362Z,100803.37
2019-02-08T02:53:14.832Z,100800.39
2019-02-08T02:55:44.386Z,100803.69
2019-02-08T02:58:13.904Z,100798.01
2019-02-08T03:00:47.874Z,100804.23
2019-02-08T03:03:17.596Z,100795.64
2019-02-08T03:05:47.440Z,100799.03
2019-02-08T03:08:17.553Z,100800.05
2019-02-08T03:10:47.528Z,100798.75
2019-02-08T03:13:17.162Z,100798.34
2019-02-08T03:15:46.711Z,100795.63
2019-02-08T03:18:16.286Z,100789.62
2019-02-08T03:20:45.759Z,100795.23
2019-02-08T03:23:15.384Z,100789.81
2019-02-08T03:25:45.063Z,100786.06
2019-02-08T03:28:14.607Z,100785.84
2019-02-08T03:30:48.780Z,100782.52
2019-02-08T03:33:18.282Z,100775.19
2019-02-08T03:35:47.800Z,100781.59
2019-02-08T03:38:17.295Z,100781.43
2019-02-08T03:40:46.777Z,100780.47
2019-02-08T03:43:16.884Z,100776.84
2019-02-08T03:45:48.087Z,100782.73
2019-02-08T03:48:17.722Z,100773.98
2019-02-08T03:50:47.343Z,100764.47
2019-02-08T03:53:16.822Z,100761.22
2019-02-08T03:55:46.378Z,100766.34
2019-02-08T03:58:15.979Z,100760.91
2019-02-08T04:00:50.316Z,100762.34
2019-02-08T04:03:19.782Z,100763.52
2019-02-08T04:05:49.262Z,100768.14
2019-02-08T04:08:18.831Z,100769.41
2019-02-08T04:10:48.376Z,100764.50
2019-02-08T04:13:17.991Z,100761.08
2019-02-08T04:15:47.647Z,100764.31
2019-02-08T04:18:17.360Z,100759.83
2019-02-08T04:20:46.915Z,100751.02
2019-02-08T04:23:16.442Z,100745.69
2019-02-08T04:25:46.056Z,100751.17
2019-02-08T04:28:15.559Z,100753.36
2019-02-08T04:30:45.133Z,100752.36
2019-02-08T04:33:14.612Z,100752.36
2019-02-08T04:35:44.097Z,100754.02
2019-02-08T04:38:13.732Z,100746.75
2019-02-08T04:40:43.226Z,100749.39
2019-02-08T04:43:12.706Z,100755.69
2019-02-08T04:45:42.244Z,100748.84
2019-02-08T04:48:11.726Z,100743.00
2019-02-08T04:50:41.212Z,100744.08
2019-02-08T04:53:10.770Z,100745.52
2019-02-08T04:55:40.411Z,100749.88
2019-02-08T04:58:10.097Z,100749.81
2019-02-08T05:00:39.722Z,100742.80
2019-02-08T05:03:09.354Z,100740.45
2019-02-08T05:05:38.899Z,100748.30
2019-02-08T05:08:08.538Z,100747.45
2019-02-08T05:10:38.181Z,100745.37
2019-02-08T05:13:07.740Z,100744.20
2019-02-08T05:15:37.309Z,100750.78
2019-02-08T05:18:07.176Z,100743.87
2019-02-08T05:20:36.719Z,100743.35
2019-02-08T05:23:06.242Z,100744.70
2019-02-08T05:25:35.737Z,100738.50
2019-02-08T05:28:05.450Z,100734.44
2019-02-08T05:30:36.650Z,100730.00
2019-02-08T05:33:06.930Z,100728.03
2019-02-08T05:35:36.562Z,100724.92
2019-02-08T05:38:06.390Z,100725.25
2019-02-08T05:40:36.051Z,100726.80
2019-02-08T05:43:06.401Z,100724.73
2019-02-08T05:45:37.498Z,100729.00
2019-02-08T05:48:07.142Z,100723.77
2019-02-08T05:50:36.676Z,100719.73
2019-02-08T05:53:06.364Z,100720.52
2019-02-08T05:55:36.120Z,100724.52
2019-02-08T05:58:06.940Z,100719.22
2019-02-08T06:00:44.854Z,100725.80
2019-02-08T06:03:14.333Z,100722.34
2019-02-08T06:05:44.728Z,100727.45
2019-02-08T06:08:14.437Z,100725.24
2019-02-08T06:10:44.083Z,100721.82
2019-02-08T06:13:13.727Z,100710.70
2019-02-08T06:15:43.342Z,100721.79
2019-02-08T06:18:12.953Z,100717.40
2019-02-08T06:20:42.658Z,100724.20
2019-02-08T06:23:13.135Z,100723.36
2019-02-08T06:25:42.688Z,100718.81
2019-02-08T06:28:12.485Z,100714.25
2019-02-08T06:30:42.113Z,100717.73
2019-02-08T06:33:11.667Z,100720.77
2019-02-08T06:35:41.375Z,100722.31
2019-02-08T06:38:10.999Z,100728.14
2019-02-08T06:40:44.617Z,100729.77
2019-02-08T06:43:14.169Z,100726.84
2019-02-08T06:45:43.800Z,100726.97
2019-02-08T06:48:14.012Z,100733.64
2019-02-08T06:50:43.632Z,100728.70
2019-02-08T06:53:13.369Z,100728.19
2019-02-08T06:55:43.902Z,100734.98
2019-02-08T06:58:19.695Z,100737.11
2019-02-08T07:01:08.828Z,100737.20
2019-02-08T07:03:47.128Z,100735.91
2019-02-08T07:06:21.007Z,100738.69
2019-02-08T07:09:08.299Z,100736.36
2019-02-08T07:11:39.469Z,100731.80
2019-02-08T07:14:10.936Z,100731.17
2019-02-08T07:16:45.168Z,100735.59
2019-02-08T07:19:16.626Z,100734.56
2019-02-08T07:22:03.853Z,100738.92
2019-02-08T07:24:50.123Z,100729.89
2019-02-08T07:27:19.378Z,100732.30
2019-02-08T07:30:15.824Z,100732.55
2019-02-08T07:32:59.103Z,100730.34
2019-02-08T07:35:33.086Z,100719.09
2019-02-08T07:38:04.547Z,100718.97
2019-02-08T07:40:48.986Z,100723.99
2019-02-08T07:43:21.510Z,100715.39
2019-02-08T07:46:09.538Z,100722.13
2019-02-08T07:48:47.845Z,100720.49
2019-02-08T07:51:17.221Z,100722.58
2019-02-08T07:53:46.600Z,100720.39
2019-02-08T07:56:21.523Z,100726.11
2019-02-08T07:58:52.746Z,100729.04
2019-02-08T08:01:24.041Z,100720.15
2019-02-08T08:04:13.894Z,100714.30
2019-02-08T08:06:45.186Z,100724.52
2019-02-08T08:09:25.742Z,100738.19
2019-02-08T08:12:02.782Z,100734.09
2019-02-08T08:14:38.469Z,100731.66
2019-02-08T08:17:08.065Z,100733.80
2019-02-08T08:19:41.033Z,100729.60
2019-02-08T08:22:15.223Z,100740.73
2019-02-08T08:24:48.921Z,100727.45
2019-02-08T08:27:21.814Z,100729.80
2019-02-08T08:29:54.070Z,100725.88
2019-02-08T08:32:28.520Z,100728.18
2019-02-08T08:35:14.419Z,100725.91
2019-02-08T08:38:14.459Z,100733.67
2019-02-08T08:41:18.998Z,100717.22
2019-02-08T08:44:05.039Z,100726.25
2019-02-08T08:46:41.715Z,100721.95
2019-02-08T08:49:59.443Z,100724.08
2019-02-08T08:52:52.894Z,100721.31
2019-02-08T08:55:52.630Z,100729.33
2019-02-08T08:58:44.643Z,100727.03
2019-02-08T09:01:33.862Z,100724.59
2019-02-08T09:04:32.223Z,100713.89
2019-02-08T09:07:37.984Z,100723.73
2019-02-08T09:10:37.707Z,100716.38
2019-02-08T09:13:27.072Z,100714.41
2019-02-08T09:16:19.800Z,100707.92
2019-02-08T09:19:08.950Z,100706.02
2019-02-08T09:21:52.100Z,100693.73
2019-02-08T09:24:32.065Z,100700.02
2019-02-08T09:27:15.938Z,100695.28
2019-02-08T09:30:15.690Z,100692.78
2019-02-08T09:33:01.024Z,100691.81
2019-02-08T09:35:40.735Z,100695.67
2019-02-08T09:38:32.797Z,100701.42
2019-02-08T09:41:29.270Z,100702.02
2019-02-08T09:44:28.471Z,100688.56
2019-02-08T09:47:17.488Z,100688.77
2019-02-08T09:50:00.271Z,100681.85
2019-02-08T09:53:04.504Z,100677.13
2019-02-08T09:56:10.302Z,100672.34
2019-02-08T09:59:07.052Z,100681.14
2019-02-08T10:01:50.122Z,100667.16
2019-02-08T10:04:54.593Z,100659.68
2019-02-08T10:08:07.756Z,100658.78
2019-02-08T10:11:06.400Z,100652.71
2019-02-08T10:13:59.766Z,100650.60
2019-02-08T10:16:59.412Z,100648.94
2019-02-08T10:20:18.858Z,100643.93
2019-02-08T10:23:25.959Z,100642.53
2019-02-08T10:26:33.293Z,100645.28
2019-02-08T10:29:40.440Z,100638.00
2019-02-08T10:33:03.167Z,100638.13
2019-02-08T10:35:57.675Z,100629.90
2019-02-08T10:38:34.812Z,100641.20
2019-02-08T10:41:46.570Z,100636.01
2019-02-08T10:44:56.912Z,100631.53
2019-02-08T10:48:19.826Z,100631.69
2019-02-08T10:51:21.198Z,100633.04
2019-02-08T10:54:27.469Z,100630.59
2019-02-08T10:57:29.993Z,100629.34
2019-02-08T11:00:37.623Z,100620.05
2019-02-08T11:03:29.719Z,100623.02
2019-02-08T11:06:39.594Z,100632.05
2019-02-08T11:09:50.037Z,100620.94
2019-02-08T11:12:59.120Z,100615.94
2019-02-08T11:15:59.143Z,100609.08
2019-02-08T11:18:42.128Z,100603.98
2019-02-08T11:21:11.629Z,100599.80
2019-02-08T11:23:41.112Z,100591.28
2019-02-08T11:26:11.087Z,100595.71
2019-02-08T11:28:40.706Z,100587.06
2019-02-08T11:31:10.417Z,100588.03
2019-02-08T11:33:40.007Z,100575.09
2019-02-08T11:36:09.907Z,100573.64
2019-02-08T11:38:39.639Z,100584.85
2019-02-08T11:41:09.441Z,100573.16
2019-02-08T11:43:38.996Z,100561.56
2019-02-08T11:46:08.562Z,100553.11
2019-02-08T11:48:38.048Z,100549.73
2019-02-08T11:51:07.691Z,100553.02
2019-02-08T11:53:37.200Z,100552.84
2019-02-08T11:56:07.291Z,100544.38
2019-02-08T11:58:36.852Z,100546.80
2019-02-08T12:01:06.667Z,100549.17
2019-02-08T12:03:36.188Z,100538.84
2019-02-08T12:06:06.670Z,100546.53
2019-02-08T12:08:36.278Z,100526.89
2019-02-08T12:11:05.937Z,100538.66
2019-02-08T12:13:35.449Z,100527.01
2019-02-08T12:16:05.216Z,100529.89
2019-02-08T12:18:34.765Z,100530.42
2019-02-08T12:21:04.512Z,100525.39
2019-02-08T12:23:34.074Z,100531.34
2019-02-08T12:26:03.570Z,100523.66
2019-02-08T12:28:33.136Z,100516.41
2019-02-08T12:31:02.781Z,100517.25
2019-02-08T12:33:32.286Z,100502.17
2019-02-08T12:36:01.828Z,100500.98
2019-02-08T12:38:31.401Z,100496.98
2019-02-08T12:41:00.953Z,100501.25
2019-02-08T12:43:30.449Z,100485.86
2019-02-08T12:46:00.293Z,100481.88
2019-02-08T12:48:29.808Z,100483.66
2019-02-08T12:50:59.375Z,100475.13
2019-02-08T12:53:28.939Z,100472.62
2019-02-08T12:55:58.457Z,100478.88
2019-02-08T12:58:27.964Z,100470.80
2019-02-08T13:00:57.514Z,100470.33
2019-02-08T13:03:27.013Z,100474.98
2019-02-08T13:05:56.593Z,100464.23
2019-02-08T13:08:26.188Z,100463.79
2019-02-08T13:10:55.758Z,100466.34
2019-02-08T13:13:25.330Z,100463.75
2019-02-08T13:15:54.910Z,100465.09
2019-02-08T13:18:24.407Z,100461.38
2019-02-08T13:20:53.957Z,100459.08
2019-02-08T13:23:23.459Z,100457.40
2019-02-08T13:25:52.941Z,100466.30
2019-02-08T13:28:22.506Z,100459.06
2019-02-08T13:30:51.996Z,100445.71
2019-02-08T13:33:21.580Z,100443.45
2019-02-08T13:35:51.257Z,100450.75
2019-02-08T13:38:20.829Z,100434.70
2019-02-08T13:40:50.510Z,100430.88
2019-02-08T13:43:20.083Z,100427.13
2019-02-08T13:45:49.708Z,100429.23
2019-02-08T13:48:19.303Z,100426.49
2019-02-08T13:50:48.879Z,100414.59
2019-02-08T13:53:18.424Z,100420.74
2019-02-08T13:55:48.760Z,100426.79
2019-02-08T13:58:18.271Z,100419.39
2019-02-08T14:00:47.861Z,100416.98
2019-02-08T14:03:17.438Z,100403.54
2019-02-08T14:05:47.026Z,100412.83
2019-02-08T14:08:16.586Z,100408.73
2019-02-08T14:10:46.202Z,100410.46
2019-02-08T14:13:15.850Z,100402.24
2019-02-08T14:15:45.549Z,100391.87
2019-02-08T14:18:15.129Z,100380.16
2019-02-08T14:20:44.629Z,100366.10
2019-02-08T14:23:14.145Z,100369.91
2019-02-08T14:25:43.682Z,100368.48
2019-02-08T14:28:13.360Z,100362.95
2019-02-08T14:30:44.457Z,100352.18
2019-02-08T14:33:13.974Z,100349.98
2019-02-08T14:35:43.679Z,100342.78
2019-02-08T14:38:17.887Z,100337.52
2019-02-08T14:40:47.509Z,100342.98
2019-02-08T14:43:17.017Z,100330.25
2019-02-08T14:45:46.586Z,100329.42
2019-02-08T14:48:16.078Z,100324.34
2019-02-08T14:50:45.689Z,100328.63
2019-02-08T14:53:15.257Z,100322.89
2019-02-08T14:55:44.744Z,100322.94
2019-02-08T14:58:14.362Z,100330.64
2019-02-08T15:00:43.926Z,100330.21
2019-02-08T15:03:13.395Z,100323.20
2019-02-08T15:05:42.891Z,100318.92
2019-02-08T15:08:12.493Z,100313.27
2019-02-08T15:10:53.127Z,100304.70
2019-02-08T15:13:22.640Z,100296.76
2019-02-08T15:15:52.120Z,100292.08
2019-02-08T15:18:21.607Z,100295.03
2019-02-08T15:20:51.169Z,100283.67
2019-02-08T15:23:20.848Z,100270.02
2019-02-08T15:25:50.479Z,100266.61
2019-02-08T15:28:19.984Z,100266.96
2019-02-08T15:30:49.477Z,100266.41
2019-02-08T15:33:19.020Z,100260.48
2019-02-08T15:35:48.550Z,100266.61
2019-02-08T15:38:18.046Z,100268.66
2019-02-08T15:40:52.224Z,100260.05
2019-02-08T15:43:23.091Z,100249.20
2019-02-08T15:45:56.811Z,100248.41
2019-02-08T15:48:26.438Z,100251.07
2019-02-08T15:50:56.182Z,100237.99
2019-02-08T15:53:25.724Z,100234.57
2019-02-08T15:56:08.707Z,100239.25
2019-02-08T15:58:38.277Z,100241.38
2019-02-08T16:01:10.303Z,100242.21
2019-02-08T16:03:40.011Z,100244.01
2019-02-08T16:06:09.946Z,100233.59
2019-02-08T16:08:39.436Z,100234.94
2019-02-08T16:11:09.077Z,100224.88
2019-02-08T16:13:38.626Z,100225.16
2019-02-08T16:16:08.550Z,100217.93
2019-02-08T16:18:38.055Z,100217.89
2019-02-08T16:21:07.757Z,100213.14
2019-02-08T16:23:37.283Z,100212.16
2019-02-08T16:26:06.752Z,100217.42
2019-02-08T16:28:36.312Z,100203.95
2019-02-08T16:31:06.255Z,100209.92
2019-02-08T16:33:35.832Z,100197.82
2019-02-08T16:36:05.666Z,100198.41
2019-02-08T16:38:35.274Z,100191.92
2019-02-08T16:41:05.028Z,100197.11
2019-02-08T16:43:34.523Z,100188.90
2019-02-08T16:46:04.588Z,100182.41
2019-02-08T16:48:34.239Z,100181.62
2019-02-08T16:51:03.921Z,100192.86
2019-02-08T16:53:33.412Z,100185.44
2019-02-08T16:56:03.176Z,100172.55
2019-02-08T16:58:32.669Z,100165.23
2019-02-08T17:01:02.286Z,100154.86
2019-02-08T17:03:31.870Z,100148.34
2019-02-08T17:06:01.411Z,100145.22
2019-02-08T17:08:30.922Z,100148.67
2019-02-08T17:11:00.414Z,100134.41
2019-02-08T17:13:29.929Z,100129.63
2019-02-08T17:15:59.460Z,100126.20
2019-02-08T17:18:29.125Z,100133.91
2019-02-08T17:20:58.616Z,100124.47
2019-02-08T17:23:28.178Z,100140.89
2019-02-08T17:25:57.771Z,100123.61
2019-02-08T17:28:27.247Z,100113.20
2019-02-08T17:30:56.786Z,100111.48
2019-02-08T17:33:26.355Z,100108.84
2019-02-08T17:35:56.019Z,100104.96
2019-02-08T17:38:25.513Z,100096.78
2019-02-08T17:40:55.083Z,100103.73
2019-02-08T17:43:24.645Z,100102.40
2019-02-08T17:45:54.380Z,100093.84
2019-02-08T17:48:23.947Z,100096.84
2019-02-08T17:50:53.600Z,100089.99
2019-02-08T17:53:23.175Z,100087.39
2019-02-08T17:55:52.670Z,100095.58
2019-02-08T17:58:22.152Z,100097.83
2019-02-08T18:00:53.453Z,100103.76
2019-02-08T18:03:23.084Z,100099.47
2019-02-08T18:05:52.595Z,100091.66
2019-02-08T18:08:22.163Z,100091.77
2019-02-08T18:10:51.819Z,100091.23
2019-02-08T18:13:21.526Z,100084.89
2019-02-08T18:15:51.096Z,100084.40
2019-02-08T18:18:20.665Z,100096.12
2019-02-08T18:20:56.784Z,100085.67
2019-02-08T18:23:26.384Z,100091.78
2019-02-08T18:25:55.912Z,100088.29
2019-02-08T18:28:25.508Z,100088.31
2019-02-08T18:30:55.221Z,100084.40
2019-02-08T18:33:24.717Z,100088.37
2019-02-08T18:35:54.279Z,100076.67
2019-02-08T18:38:23.858Z,100080.05
2019-02-08T18:40:53.469Z,100071.11
2019-02-08T18:43:23.012Z,100066.67
2019-02-08T18:45:52.551Z,100065.44
2019-02-08T18:48:22.055Z,100054.17
2019-02-08T18:50:54.577Z,100047.36
2019-02-08T18:53:24.174Z,100038.70
2019-02-08T18:55:53.729Z,100046.01
2019-02-08T18:58:23.798Z,100037.39
2019-02-08T19:00:55.004Z,100028.33
2019-02-08T19:03:25.248Z,100019.16
2019-02-08T19:05:54.825Z,100017.05
2019-02-08T19:08:24.312Z,100020.47
2019-02-08T19:10:53.922Z,100005.25
2019-02-08T19:13:23.848Z,100003.59
2019-02-08T19:15:53.472Z,99998.80
2019-02-08T19:18:23.080Z,100003.09
2019-02-08T19:20:52.677Z,100005.25
2019-02-08T19:23:22.252Z,99997.91
2019-02-08T19:25:51.891Z,99992.77
2019-02-08T19:28:26.369Z,99990.17
2019-02-08T19:30:52.614Z,99994.95
2019-02-08T19:33:22.113Z,99975.94
2019-02-08T19:35:51.609Z,99972.45
2019-02-08T19:38:21.162Z,99974.25
2019-02-08T19:40:50.728Z,99953.87
2019-02-08T19:43:20.292Z,99964.70
2019-02-08T19:45:49.855Z,99960.37
2019-02-08T19:48:20.796Z,99967.70
2019-02-08T19:50:50.504Z,99962.08
2019-02-08T19:53:20.054Z,99958.19
2019-02-08T19:55:49.545Z,99947.83
2019-02-08T19:58:19.056Z,99948.28
2019-02-08T20:00:48.616Z,99947.42
2019-02-08T20:03:18.193Z,99955.18
2019-02-08T20:05:47.736Z,99953.00
2019-02-08T20:08:17.385Z,99950.87
2019-02-08T20:10:50.053Z,99941.37
2019-02-08T20:13:19.685Z,99941.36
2019-02-08T20:15:49.323Z,99934.05
2019-02-08T20:18:18.811Z,99930.98
2019-02-08T20:20:48.506Z,99933.14
2019-02-08T20:23:18.016Z,99926.66
2019-02-08T20:25:47.957Z,99926.66
2019-02-08T20:28:17.381Z,99918.47
2019-02-08T20:30:46.958Z,99910.66
2019-02-08T20:33:16.505Z,99913.70
2019-02-08T20:35:46.069Z,99904.16
2019-02-08T20:38:15.581Z,99917.98
2019-02-08T20:40:48.876Z,99912.81
2019-02-08T20:43:18.514Z,99905.44
2019-02-08T20:45:48.176Z,99898.11
2019-02-08T20:48:21.010Z,99892.46
2019-02-08T20:50:50.752Z,99885.58
2019-02-08T20:53:20.682Z,99887.28
2019-02-08T20:55:50.254Z,99882.08
2019-02-08T20:58:19.964Z,99875.61
2019-02-08T21:00:53.845Z,99874.30
2019-02-08T21:03:25.420Z,99852.25
2019-02-08T21:05:55.403Z,99834.98
2019-02-08T21:08:25.281Z,99827.61
2019-02-08T21:10:55.268Z,99817.22
2019-02-08T21:13:25.220Z,99818.48
2019-02-08T21:15:54.787Z,99819.78
2019-02-08T21:18:24.327Z,99809.78
2019-02-08T21:20:53.949Z,99815.41
2019-02-08T21:23:23.425Z,99813.22
2019-02-08T21:25:52.972Z,99802.89
2019-02-08T21:28:22.611Z,99787.77
2019-02-08T21:30:52.244Z,99784.33
2019-02-08T21:33:21.822Z,99769.22
2019-02-08T21:35:51.327Z,99776.12
2019-02-08T21:38:20.943Z,99778.75
2019-02-08T21:40:50.644Z,99775.28
2019-02-08T21:43:20.237Z,99773.57
2019-02-08T21:45:49.759Z,99768.39
2019-02-08T21:48:19.388Z,99765.82
2019-02-08T21:50:49.117Z,99767.56
2019-02-08T21:53:18.713Z,99754.61
2019-02-08T21:55:48.295Z,99764.12
2019-02-08T21:58:17.848Z,99769.32
2019-02-08T22:00:47.485Z,99762.81
2019-02-08T22:03:16.978Z,99773.65
2019-02-08T22:05:51.033Z,99758.10
2019-02-08T22:08:20.667Z,99754.64
2019-02-08T22:10:50.311Z,99751.14
2019-02-08T22:13:19.860Z,99740.39
2019-02-08T22:15:49.779Z,99748.14
2019-02-08T22:18:19.422Z,99748.56
2019-02-08T22:20:48.882Z,99746.86
2019-02-08T22:23:18.527Z,99742.13
2019-02-08T22:25:48.102Z,99733.06
2019-02-08T22:28:17.574Z,99729.13
2019-02-08T22:30:47.149Z,99736.88
2019-02-08T22:33:16.721Z,99730.44
2019-02-08T22:35:46.308Z,99727.37
2019-02-08T22:38:15.860Z,99726.95
2019-02-08T22:40:45.495Z,99726.98
2019-02-08T22:43:15.051Z,99725.27
2019-02-08T22:45:44.613Z,99723.93
2019-02-08T22:48:14.141Z,99713.56
2019-02-08T22:50:43.758Z,99700.61
2019-02-08T22:53:13.355Z,99694.58
2019-02-08T22:55:42.854Z,99692.39
2019-02-08T22:58:13.006Z,99684.16
2019-02-08T23:00:55.829Z,99688.06
2019-02-08T23:03:25.533Z,99675.95
2019-02-08T23:05:55.019Z,99658.66
2019-02-08T23:08:24.602Z,99654.78
2019-02-08T23:10:54.158Z,99653.49
2019-02-08T23:13:23.712Z,99657.38
2019-02-08T23:15:53.291Z,99654.36
2019-02-08T23:18:22.871Z,99656.95
2019-02-08T23:20:52.432Z,99659.53
2019-02-08T23:23:22.059Z,99659.13
2019-02-08T23:25:51.794Z,99656.09
2019-02-08T23:28:21.301Z,99655.67
2019-02-08T23:30:50.865Z,99660.84
2019-02-08T23:33:20.715Z,99660.42
2019-02-08T23:35:51.145Z,99647.45
2019-02-08T23:38:20.636Z,99650.05
2019-02-08T23:40:50.126Z,99644.84
2019-02-08T23:43:19.677Z,99637.50
2019-02-08T23:45:49.257Z,99640.96
2019-02-08T23:48:18.768Z,99640.54
2019-02-08T23:50:48.308Z,99628.41
2019-02-08T23:53:17.798Z,99627.55
2019-02-08T23:55:47.352Z,99625.40
2019-02-08T23:58:16.863Z,99621.08
